createdAt,value
2022-12-03T00:02:10.375Z,2.70
2022-12-03T00:04:38.879Z,2.60
2022-12-03T00:07:10.526Z,2.60
2022-12-03T00:09:41.274Z,2.85
2022-12-03T00:12:11.279Z,2.22
2022-12-03T00:14:44.377Z,2.03
2022-12-03T00:17:15.445Z,1.92
2022-12-03T00:19:47.048Z,2.45
2022-12-03T00:22:18.821Z,2.15
2022-12-03T00:24:52.190Z,2.42
2022-12-03T00:27:21.328Z,2.58
2022-12-03T00:29:50.109Z,1.85
2022-12-03T00:32:22.704Z,2.28
2022-12-03T00:35:25.012Z,2.53
2022-12-03T00:37:55.148Z,1.63
2022-12-03T00:43:03.088Z,2.40
2022-12-03T00:45:31.858Z,2.33
2022-12-03T00:48:12.469Z,1.95
2022-12-03T00:50:41.066Z,2.50
2022-12-03T00:53:09.683Z,2.90
2022-12-03T00:55:38.766Z,2.13
2022-12-03T00:58:08.743Z,2.70
2022-12-03T01:00:42.331Z,2.75
2022-12-03T01:03:12.568Z,2.53
2022-12-03T01:05:41.922Z,3.10
2022-12-03T01:08:10.832Z,2.75
2022-12-03T01:10:39.554Z,2.83
2022-12-03T01:13:11.117Z,2.97
2022-12-03T01:15:40.970Z,2.42
2022-12-03T01:18:09.799Z,2.90
2022-12-03T01:20:39.718Z,2.42
2022-12-03T01:23:09.713Z,3.00
2022-12-03T01:25:38.738Z,2.75
2022-12-03T01:28:09.929Z,2.65
2022-12-03T01:31:04.556Z,3.05
2022-12-03T01:33:32.296Z,2.50
2022-12-03T01:36:08.921Z,2.35
2022-12-03T01:38:39.055Z,2.47
2022-12-03T01:43:51.860Z,2.53
2022-12-03T01:46:27.952Z,2.78
2022-12-03T01:48:58.242Z,2.35
2022-12-03T01:51:29.887Z,1.73
2022-12-03T01:54:11.636Z,3.22
2022-12-03T01:56:40.536Z,3.45
2022-12-03T01:59:09.343Z,2.70
2022-12-03T02:01:41.980Z,2.35
2022-12-03T02:04:16.387Z,2.20
2022-12-03T02:06:49.341Z,2.30
2022-12-03T02:09:22.265Z,2.10
2022-12-03T02:12:16.776Z,2.15
2022-12-03T02:14:46.182Z,2.22
2022-12-03T02:17:35.349Z,2.45
2022-12-03T02:20:10.962Z,2.25
2022-12-03T02:22:55.042Z,2.50
2022-12-03T02:25:32.526Z,2.47
2022-12-03T02:28:06.841Z,3.63
2022-12-03T02:30:43.502Z,2.22
2022-12-03T02:33:12.171Z,2.65
2022-12-03T02:35:41.517Z,3.13
2022-12-03T02:38:15.621Z,3.03
2022-12-03T02:40:48.380Z,1.60
2022-12-03T02:43:21.628Z,2.08
2022-12-03T02:45:53.506Z,1.85
2022-12-03T02:48:41.713Z,1.98
2022-12-03T02:51:12.901Z,2.38
2022-12-03T02:53:46.596Z,2.60
2022-12-03T02:56:23.292Z,1.80
2022-12-03T02:58:55.920Z,1.60
2022-12-03T03:01:35.713Z,1.50
2022-12-03T03:04:08.277Z,2.00
2022-12-03T03:06:38.794Z,2.28
2022-12-03T03:09:11.246Z,2.03
2022-12-03T03:11:41.876Z,1.40
2022-12-03T03:14:11.112Z,1.83
2022-12-03T03:16:40.293Z,1.80
2022-12-03T03:19:09.751Z,2.37
2022-12-03T03:21:39.486Z,2.10
2022-12-03T03:24:11.954Z,2.20
2022-12-03T03:26:53.962Z,2.03
2022-12-03T03:29:23.713Z,1.58
2022-12-03T03:32:07.004Z,1.63
2022-12-03T03:34:38.658Z,1.63
2022-12-03T03:37:10.511Z,1.63
2022-12-03T03:39:42.039Z,1.77
2022-12-03T03:42:13.406Z,2.03
2022-12-03T03:44:43.110Z,1.50
2022-12-03T03:47:14.592Z,2.20
2022-12-03T03:49:44.021Z,1.70
2022-12-03T03:52:13.886Z,2.00
2022-12-03T03:54:46.497Z,1.98
2022-12-03T03:57:18.521Z,2.05
2022-12-03T03:59:47.642Z,1.55
2022-12-03T04:02:21.530Z,1.77
2022-12-03T04:04:54.235Z,2.03
2022-12-03T04:07:23.308Z,1.67
2022-12-03T04:09:52.013Z,2.47
2022-12-03T04:12:39.444Z,2.22
2022-12-03T04:15:10.058Z,2.22
2022-12-03T04:17:45.962Z,2.53
2022-12-03T04:20:15.930Z,2.42
2022-12-03T04:22:51.907Z,2.58
2022-12-03T04:25:38.265Z,2.65
2022-12-03T04:28:27.770Z,2.03
2022-12-03T04:31:03.875Z,2.20
2022-12-03T04:33:50.199Z,2.20
2022-12-03T04:36:19.450Z,2.47
2022-12-03T04:38:54.826Z,2.17
2022-12-03T04:41:40.537Z,2.70
2022-12-03T04:47:51.821Z,1.90
2022-12-03T04:50:19.968Z,2.58
2022-12-03T04:52:50.925Z,2.25
2022-12-03T04:55:19.074Z,2.08
2022-12-03T04:57:47.138Z,2.70
2022-12-03T05:00:16.383Z,2.50
2022-12-03T05:02:44.580Z,2.10
2022-12-03T05:05:14.214Z,2.08
2022-12-03T05:07:42.842Z,2.28
2022-12-03T05:10:11.920Z,2.03
2022-12-03T05:12:40.217Z,2.22
2022-12-03T05:15:09.284Z,2.30
2022-12-03T05:17:37.537Z,2.33
2022-12-03T05:20:24.587Z,2.20
2022-12-03T05:22:54.228Z,2.90
2022-12-03T05:25:23.121Z,2.22
2022-12-03T05:27:51.406Z,2.22
2022-12-03T05:30:19.637Z,2.00
2022-12-03T05:32:47.827Z,2.13
2022-12-03T05:35:16.094Z,2.30
2022-12-03T05:37:44.822Z,1.95
2022-12-03T05:40:15.655Z,2.40
2022-12-03T05:42:55.817Z,2.70
2022-12-03T05:47:53.455Z,2.40
2022-12-03T05:50:22.232Z,2.13
2022-12-03T05:52:50.386Z,2.55
2022-12-03T05:55:21.075Z,1.80
2022-12-03T05:57:53.657Z,2.83
2022-12-03T06:00:23.988Z,2.38
2022-12-03T06:02:52.281Z,2.47
2022-12-03T06:05:24.500Z,2.38
2022-12-03T06:07:53.935Z,2.03
2022-12-03T06:10:26.294Z,2.05
2022-12-03T06:12:54.932Z,2.22
2022-12-03T06:15:23.258Z,2.45
2022-12-03T06:17:51.461Z,2.13
2022-12-03T06:20:21.906Z,2.25
2022-12-03T06:22:50.810Z,2.33
2022-12-03T06:25:19.497Z,2.65
2022-12-03T06:27:49.586Z,2.10
2022-12-03T06:32:46.115Z,2.70
2022-12-03T06:35:14.332Z,2.20
2022-12-03T06:37:42.566Z,2.20
2022-12-03T06:40:11.743Z,2.50
2022-12-03T06:42:39.994Z,1.93
2022-12-03T06:45:10.427Z,1.92
2022-12-03T06:47:38.736Z,1.95
2022-12-03T06:50:08.858Z,2.22
2022-12-03T06:55:05.389Z,2.08
2022-12-03T06:57:33.639Z,2.25
2022-12-03T07:00:02.377Z,1.70
2022-12-03T07:02:31.983Z,2.17
2022-12-03T07:05:00.136Z,1.90
2022-12-03T07:07:29.015Z,1.98
2022-12-03T07:09:57.339Z,1.75
2022-12-03T07:12:25.423Z,1.70
2022-12-03T07:14:54.020Z,1.52
2022-12-03T07:17:27.025Z,1.52
2022-12-03T07:19:56.845Z,1.40
2022-12-03T07:22:24.926Z,1.73
2022-12-03T07:24:55.863Z,1.52
2022-12-03T07:27:24.627Z,1.70
2022-12-03T07:29:52.924Z,1.67
2022-12-03T07:32:21.073Z,1.60
2022-12-03T07:34:49.229Z,1.48
2022-12-03T07:37:22.875Z,1.27
2022-12-03T07:39:52.487Z,1.33
2022-12-03T07:42:20.651Z,1.73
2022-12-03T07:44:48.807Z,1.52
2022-12-03T07:47:20.337Z,1.30
2022-12-03T07:49:48.422Z,1.38
2022-12-03T07:52:16.541Z,1.08
2022-12-03T07:54:46.207Z,1.30
2022-12-03T07:57:17.442Z,0.90
2022-12-03T07:59:45.819Z,1.05
2022-12-03T08:02:19.609Z,0.90
2022-12-03T08:04:49.599Z,1.10
2022-12-03T08:07:17.709Z,1.13
2022-12-03T08:09:47.307Z,0.75
2022-12-03T08:12:18.339Z,0.75
2022-12-03T08:14:46.529Z,1.27
2022-12-03T08:17:17.980Z,1.55
2022-12-03T08:19:48.274Z,0.70
2022-12-03T08:22:17.771Z,1.02
2022-12-03T08:24:47.342Z,0.95
2022-12-03T08:27:18.867Z,0.80
2022-12-03T08:29:47.377Z,1.40
2022-12-03T08:32:15.531Z,0.98
2022-12-03T08:34:45.281Z,0.73
2022-12-03T08:37:17.774Z,1.00
2022-12-03T08:39:49.566Z,0.95
2022-12-03T08:42:40.613Z,0.60
2022-12-03T08:45:40.059Z,0.85
2022-12-03T08:48:32.704Z,0.80
2022-12-03T08:51:14.305Z,1.20
2022-12-03T08:53:48.045Z,1.20
2022-12-03T08:56:25.706Z,0.75
2022-12-03T08:58:56.911Z,0.90
2022-12-03T09:01:42.879Z,0.75
2022-12-03T09:04:23.939Z,1.35
2022-12-03T09:06:58.027Z,1.30
2022-12-03T09:09:29.357Z,1.45
2022-12-03T09:11:58.920Z,1.00
2022-12-03T09:14:27.156Z,1.20
2022-12-03T09:16:56.458Z,0.88
2022-12-03T09:19:25.614Z,0.85
2022-12-03T09:21:57.752Z,1.20
2022-12-03T09:24:26.033Z,1.17
2022-12-03T09:26:54.056Z,1.10
2022-12-03T09:29:23.561Z,1.33
2022-12-03T09:31:51.843Z,1.02
2022-12-03T09:34:20.052Z,1.30
2022-12-03T09:36:48.065Z,1.23
2022-12-03T09:39:16.095Z,1.38
2022-12-03T09:41:44.375Z,0.95
2022-12-03T09:44:17.499Z,1.40
2022-12-03T09:46:49.075Z,1.30
2022-12-03T09:49:19.875Z,1.15
2022-12-03T09:51:49.705Z,1.20
2022-12-03T09:54:24.966Z,1.38
2022-12-03T09:56:53.645Z,1.10
2022-12-03T09:59:23.666Z,0.90
2022-12-03T10:01:53.837Z,0.90
2022-12-03T10:04:26.094Z,1.20
2022-12-03T10:06:54.316Z,0.80
2022-12-03T10:09:27.021Z,1.08
2022-12-03T10:11:56.173Z,1.35
2022-12-03T10:14:24.743Z,1.70
2022-12-03T10:16:54.344Z,0.90
2022-12-03T10:19:25.513Z,1.63
2022-12-03T10:21:53.662Z,1.20
2022-12-03T10:24:25.877Z,1.42
2022-12-03T10:26:56.393Z,1.00
2022-12-03T10:29:32.915Z,1.15
2022-12-03T10:32:04.637Z,1.42
2022-12-03T10:34:34.987Z,1.45
2022-12-03T10:37:15.930Z,1.60
2022-12-03T10:40:01.216Z,0.93
2022-12-03T10:42:31.125Z,1.63
2022-12-03T10:45:13.898Z,1.40
2022-12-03T10:47:44.172Z,1.52
2022-12-03T10:50:20.738Z,1.52
2022-12-03T10:52:48.727Z,1.70
2022-12-03T10:55:17.653Z,1.67
2022-12-03T10:57:46.361Z,1.52
2022-12-03T11:00:18.802Z,1.52
2022-12-03T11:02:56.110Z,1.75
2022-12-03T11:05:28.547Z,2.13
2022-12-03T11:07:57.620Z,1.60
2022-12-03T11:10:26.274Z,1.70
2022-12-03T11:13:29.167Z,1.60
2022-12-03T11:15:58.532Z,1.80
2022-12-03T11:19:08.256Z,1.65
2022-12-03T11:22:18.689Z,1.50
2022-12-03T11:24:46.686Z,1.50
2022-12-03T11:27:20.906Z,1.38
2022-12-03T11:29:57.705Z,0.90
2022-12-03T11:33:06.344Z,0.90
2022-12-03T11:36:07.075Z,1.00
2022-12-03T11:38:53.035Z,0.90
2022-12-03T11:41:27.655Z,0.88
2022-12-03T11:44:29.362Z,0.90
2022-12-03T11:47:00.609Z,0.57
2022-12-03T11:49:36.425Z,0.80
2022-12-03T11:52:20.185Z,0.52
2022-12-03T11:54:54.604Z,0.80
2022-12-03T11:57:38.602Z,0.50
2022-12-03T12:00:14.876Z,0.50
2022-12-03T12:02:43.342Z,0.90
2022-12-03T12:05:23.651Z,1.27
2022-12-03T12:10:44.117Z,0.65
2022-12-03T12:13:44.514Z,0.70
2022-12-03T12:16:12.894Z,0.85
2022-12-03T12:18:42.842Z,0.90
2022-12-03T12:21:47.720Z,0.70
2022-12-03T12:24:38.294Z,0.70
2022-12-03T12:27:10.117Z,0.90
2022-12-03T12:29:39.990Z,0.70
2022-12-03T12:32:15.841Z,0.85
2022-12-03T12:34:45.921Z,0.70
2022-12-03T12:37:18.206Z,0.55
2022-12-03T12:39:46.617Z,0.88
2022-12-03T12:42:30.724Z,0.75
2022-12-03T12:45:02.986Z,0.73
2022-12-03T12:47:32.201Z,0.60
2022-12-03T12:50:00.505Z,1.00
2022-12-03T12:52:29.019Z,0.75
2022-12-03T12:55:01.512Z,0.82
2022-12-03T12:57:35.374Z,0.50
2022-12-03T13:00:05.913Z,0.60
2022-12-03T13:02:46.378Z,0.77
2022-12-03T13:05:15.863Z,1.00
2022-12-03T13:07:44.945Z,1.08
2022-12-03T13:10:38.422Z,0.90
2022-12-03T13:13:31.026Z,0.95
2022-12-03T13:16:04.056Z,0.70
2022-12-03T13:18:36.150Z,0.70
2022-12-03T13:21:15.960Z,0.70
2022-12-03T13:23:43.956Z,0.88
2022-12-03T13:26:32.927Z,1.02
2022-12-03T13:29:12.255Z,1.65
2022-12-03T13:31:44.217Z,1.65
2022-12-03T13:34:15.968Z,2.80
2022-12-03T13:36:45.890Z,4.90
2022-12-03T13:39:20.420Z,4.07
2022-12-03T13:42:06.350Z,1.80
2022-12-03T13:44:42.701Z,1.65
2022-12-03T13:47:18.170Z,1.38
2022-12-03T13:49:52.839Z,1.60
2022-12-03T13:52:23.418Z,2.05
2022-12-03T13:54:54.038Z,1.35
2022-12-03T13:57:22.174Z,1.23
2022-12-03T13:59:52.351Z,1.50
2022-12-03T14:02:21.515Z,1.40
2022-12-03T14:04:49.580Z,1.63
2022-12-03T14:07:18.017Z,1.52
2022-12-03T14:09:46.010Z,1.33
2022-12-03T14:12:33.746Z,1.17
2022-12-03T14:15:03.579Z,0.47
2022-12-03T14:17:34.850Z,0.77
2022-12-03T14:20:03.947Z,0.65
2022-12-03T14:22:32.380Z,0.50
2022-12-03T14:25:00.403Z,0.73
2022-12-03T14:27:30.671Z,1.17
2022-12-03T14:29:58.681Z,0.63
2022-12-03T14:32:28.433Z,0.80
2022-12-03T14:34:56.793Z,1.17
2022-12-03T14:37:24.744Z,0.65
2022-12-03T14:39:55.958Z,0.63
2022-12-03T14:42:24.181Z,0.60
2022-12-03T14:44:52.924Z,0.82
2022-12-03T14:47:25.502Z,0.93
2022-12-03T14:49:55.037Z,0.50
2022-12-03T14:52:23.268Z,1.25
2022-12-03T14:54:51.326Z,0.82
2022-12-03T14:57:19.344Z,1.90
2022-12-03T14:59:48.013Z,0.80
2022-12-03T15:02:16.078Z,1.02
2022-12-03T15:04:44.359Z,0.60
2022-12-03T15:07:13.807Z,0.80
2022-12-03T15:09:41.937Z,1.05
2022-12-03T15:12:09.981Z,0.50
2022-12-03T15:14:38.613Z,1.35
2022-12-03T15:17:06.830Z,0.82
2022-12-03T15:19:35.013Z,1.15
2022-12-03T15:22:03.261Z,0.90
2022-12-03T15:24:32.727Z,1.00
2022-12-03T15:27:00.791Z,1.40
2022-12-03T15:29:28.820Z,1.00
2022-12-03T15:31:59.371Z,0.98
2022-12-03T15:34:27.751Z,0.77
2022-12-03T15:36:55.792Z,1.02
2022-12-03T15:39:23.908Z,1.50
2022-12-03T15:41:53.350Z,1.67
2022-12-03T15:44:21.521Z,1.45
2022-12-03T15:46:49.550Z,0.50
2022-12-03T15:49:17.546Z,0.95
2022-12-03T15:51:45.553Z,1.20
2022-12-03T15:54:13.813Z,1.08
2022-12-03T15:56:41.850Z,0.85
2022-12-03T15:59:11.240Z,1.30
2022-12-03T16:01:39.349Z,1.63
2022-12-03T16:04:08.655Z,1.60
2022-12-03T16:06:36.722Z,1.38
2022-12-03T16:09:04.810Z,1.60
2022-12-03T16:11:34.049Z,2.08
2022-12-03T16:14:02.058Z,1.60
2022-12-03T16:16:31.530Z,0.88
2022-12-03T16:18:59.633Z,2.78
2022-12-03T16:21:27.637Z,2.42
2022-12-03T16:23:55.940Z,2.45
2022-12-03T16:26:24.176Z,1.60
2022-12-03T16:28:52.237Z,1.65
2022-12-03T16:31:20.634Z,1.90
2022-12-03T16:33:50.648Z,2.17
2022-12-03T16:36:18.607Z,2.22
2022-12-03T16:38:46.593Z,1.58
2022-12-03T16:41:14.660Z,2.42
2022-12-03T16:43:45.573Z,1.85
2022-12-03T16:46:26.732Z,1.35
2022-12-03T16:48:58.134Z,1.45
2022-12-03T16:51:27.098Z,1.48
2022-12-03T16:53:55.693Z,1.05
2022-12-03T16:56:23.757Z,1.30
2022-12-03T16:58:51.813Z,1.48
2022-12-03T17:01:20.036Z,1.40
2022-12-03T17:03:48.177Z,1.35
2022-12-03T17:06:18.513Z,1.88
2022-12-03T17:08:49.649Z,2.65
2022-12-03T17:11:19.208Z,3.70
2022-12-03T17:13:47.346Z,2.30
2022-12-03T17:16:17.574Z,1.50
2022-12-03T17:21:13.495Z,2.63
2022-12-03T17:23:43.126Z,1.98
2022-12-03T17:26:11.133Z,1.80
2022-12-03T17:28:39.130Z,1.70
2022-12-03T17:31:07.262Z,1.33
2022-12-03T17:33:35.348Z,1.98
2022-12-03T17:36:03.472Z,2.45
2022-12-03T17:38:37.325Z,3.15
2022-12-03T17:41:08.938Z,8.95
2022-12-03T17:43:36.975Z,7.70
2022-12-03T17:46:06.695Z,5.47
2022-12-03T17:48:35.429Z,1.52
2022-12-03T17:51:03.935Z,1.55
2022-12-03T17:53:31.930Z,1.42
2022-12-03T17:55:59.976Z,1.08
2022-12-03T17:58:29.413Z,1.20
2022-12-03T18:01:02.378Z,5.93
2022-12-03T18:03:31.059Z,1.38
2022-12-03T18:05:59.158Z,1.35
2022-12-03T18:08:27.241Z,1.48
2022-12-03T18:10:56.268Z,0.82
2022-12-03T18:13:24.294Z,0.73
2022-12-03T18:15:53.751Z,1.00
2022-12-03T18:18:21.787Z,0.82
2022-12-03T18:20:49.785Z,1.55
2022-12-03T18:23:17.859Z,1.05
2022-12-03T18:25:45.875Z,1.10
2022-12-03T18:28:15.314Z,1.10
2022-12-03T18:30:47.535Z,0.98
2022-12-03T18:33:21.322Z,1.02
2022-12-03T18:35:49.554Z,0.80
2022-12-03T18:38:19.198Z,1.33
2022-12-03T18:40:48.629Z,1.10
2022-12-03T18:43:18.693Z,1.70
2022-12-03T18:45:46.685Z,1.80
2022-12-03T18:48:17.917Z,1.63
2022-12-03T18:50:47.769Z,1.65
2022-12-03T18:53:18.669Z,2.08
2022-12-03T18:55:48.611Z,3.10
2022-12-03T18:58:16.603Z,4.35
2022-12-03T19:00:44.714Z,3.08
2022-12-03T19:03:12.982Z,2.63
2022-12-03T19:05:41.096Z,2.55
2022-12-03T19:08:14.852Z,1.65
2022-12-03T19:10:43.531Z,1.58
2022-12-03T19:13:12.015Z,1.02
2022-12-03T19:15:41.043Z,1.42
2022-12-03T19:18:11.491Z,1.63
2022-12-03T19:20:42.227Z,1.25
2022-12-03T19:23:11.689Z,1.40
2022-12-03T19:25:39.953Z,1.20
2022-12-03T19:28:08.376Z,1.05
2022-12-03T19:30:36.431Z,1.20
2022-12-03T19:33:04.416Z,0.98
2022-12-03T19:35:32.792Z,0.93
2022-12-03T19:38:02.207Z,1.30
2022-12-03T19:40:34.972Z,1.25
2022-12-03T19:43:02.956Z,1.40
2022-12-03T19:45:31.010Z,1.17
2022-12-03T19:48:00.441Z,1.40
2022-12-03T19:50:28.516Z,1.42
2022-12-03T19:52:57.185Z,1.35
2022-12-03T19:55:25.161Z,2.60
2022-12-03T19:57:54.587Z,2.05
2022-12-03T20:00:22.943Z,3.97
2022-12-03T20:02:51.213Z,2.78
2022-12-03T20:05:19.358Z,2.45
2022-12-03T20:07:47.479Z,2.60
2022-12-03T20:10:15.628Z,2.90
2022-12-03T20:12:43.783Z,2.75
2022-12-03T20:15:14.440Z,2.35
2022-12-03T20:17:42.502Z,3.42
2022-12-03T20:20:12.420Z,4.30
2022-12-03T20:22:40.706Z,2.95
2022-12-03T20:25:09.480Z,3.67
2022-12-03T20:27:37.722Z,4.18
2022-12-03T20:30:07.145Z,4.47
2022-12-03T20:32:40.648Z,3.33
2022-12-03T20:35:13.001Z,3.08
2022-12-03T20:37:41.013Z,2.50
2022-12-03T20:40:10.346Z,4.50
2022-12-03T20:42:38.525Z,3.23
2022-12-03T20:45:07.853Z,2.70
2022-12-03T20:47:39.996Z,1.70
2022-12-03T20:50:08.975Z,1.98
2022-12-03T20:52:37.023Z,1.70
2022-12-03T20:55:05.363Z,2.63
2022-12-03T20:57:33.481Z,2.53
2022-12-03T21:00:01.602Z,2.20
2022-12-03T21:02:29.639Z,2.70
2022-12-03T21:05:02.133Z,1.67
2022-12-03T21:07:30.228Z,1.60
2022-12-03T21:09:58.337Z,1.67
2022-12-03T21:12:26.400Z,2.42
2022-12-03T21:14:54.433Z,2.42
2022-12-03T21:17:22.483Z,1.65
2022-12-03T21:19:51.937Z,2.65
2022-12-03T21:22:21.586Z,2.60
2022-12-03T21:24:49.581Z,2.17
2022-12-03T21:27:21.787Z,3.08
2022-12-03T21:29:50.231Z,2.58
2022-12-03T21:32:18.575Z,2.85
2022-12-03T21:34:46.702Z,2.65
2022-12-03T21:37:14.793Z,1.90
2022-12-03T21:39:44.884Z,3.60
2022-12-03T21:42:34.919Z,3.50
2022-12-03T21:45:03.858Z,3.83
2022-12-03T21:47:36.926Z,3.30
2022-12-03T21:50:07.586Z,1.80
2022-12-03T21:55:05.843Z,2.10
2022-12-03T21:57:36.893Z,2.67
2022-12-03T22:00:07.741Z,1.20
2022-12-03T22:02:36.256Z,1.58
2022-12-03T22:05:04.389Z,1.63
2022-12-03T22:07:34.163Z,1.35
2022-12-03T22:10:07.742Z,0.95
2022-12-03T22:12:35.738Z,1.15
2022-12-03T22:15:03.875Z,1.73
2022-12-03T22:17:32.267Z,2.05
2022-12-03T22:20:00.264Z,2.13
2022-12-03T22:22:28.307Z,1.48
2022-12-03T22:24:56.405Z,1.42
2022-12-03T22:27:25.918Z,1.17
2022-12-03T22:29:54.184Z,1.52
2022-12-03T22:32:22.400Z,1.70
2022-12-03T22:34:50.647Z,1.48
2022-12-03T22:37:18.682Z,1.13
2022-12-03T22:39:46.723Z,1.48
2022-12-03T22:42:15.051Z,1.98
2022-12-03T22:44:44.622Z,1.75
2022-12-03T22:47:13.063Z,1.45
2022-12-03T22:49:41.126Z,1.08
2022-12-03T22:52:09.570Z,1.83
2022-12-03T22:54:37.572Z,1.38
2022-12-03T22:57:05.566Z,1.45
2022-12-03T22:59:33.651Z,1.48
2022-12-03T23:02:03.136Z,1.15
2022-12-03T23:04:31.182Z,1.30
2022-12-03T23:06:59.323Z,1.50
2022-12-03T23:09:27.438Z,1.63
2022-12-03T23:11:55.488Z,1.10
2022-12-03T23:14:23.552Z,1.27
2022-12-03T23:16:51.573Z,1.17
2022-12-03T23:19:21.119Z,1.55
2022-12-03T23:21:49.201Z,3.63
2022-12-03T23:24:17.274Z,1.55
2022-12-03T23:26:45.262Z,1.65
2022-12-03T23:29:13.447Z,1.15
2022-12-03T23:31:42.934Z,1.90
2022-12-03T23:34:11.040Z,0.90
2022-12-03T23:36:40.638Z,1.08
2022-12-03T23:39:08.942Z,1.30
2022-12-03T23:41:37.074Z,1.10
2022-12-03T23:44:05.115Z,0.98
2022-12-03T23:46:33.435Z,0.70
2022-12-03T23:49:01.513Z,1.27
2022-12-03T23:51:29.553Z,1.00
2022-12-03T23:53:58.992Z,0.73
2022-12-03T23:56:29.976Z,1.02
2022-12-03T23:58:59.196Z,0.90
